sensor_id;sensor_type;location;lat;lon;timestamp;pressure;altitude;pressure_sealevel;temperature;humidity
59831;BME280;45711;50.108;13.712;2022-08-16T00:02:21;97152.97;;;18.12;93.76
59831;BME280;45711;50.108;13.712;2022-08-16T00:04:47;97150.72;;;18.02;95.90
59831;BME280;45711;50.108;13.712;2022-08-16T00:07:13;97152.13;;;17.96;96.95
59831;BME280;45711;50.108;13.712;2022-08-16T00:09:38;97152.34;;;18.03;97.26
59831;BME280;45711;50.108;13.712;2022-08-16T00:12:04;97146.50;;;17.89;98.21
59831;BME280;45711;50.108;13.712;2022-08-16T00:14:31;97140.16;;;17.97;95.29
59831;BME280;45711;50.108;13.712;2022-08-16T00:16:58;97151.16;;;18.16;93.16
59831;BME280;45711;50.108;13.712;2022-08-16T00:19:28;97158.84;;;18.02;93.90
59831;BME280;45711;50.108;13.712;2022-08-16T00:21:57;97155.09;;;18.34;91.33
59831;BME280;45711;50.108;13.712;2022-08-16T00:24:24;97155.16;;;18.22;92.80
59831;BME280;45711;50.108;13.712;2022-08-16T00:26:53;97163.31;;;17.94;93.01
59831;BME280;45711;50.108;13.712;2022-08-16T00:29:19;97159.59;;;18.15;91.62
59831;BME280;45711;50.108;13.712;2022-08-16T00:31:46;97155.78;;;18.31;90.61
59831;BME280;45711;50.108;13.712;2022-08-16T00:34:12;97158.47;;;18.16;91.98
59831;BME280;45711;50.108;13.712;2022-08-16T00:36:42;97153.06;;;18.31;91.50
59831;BME280;45711;50.108;13.712;2022-08-16T00:39:14;97144.94;;;18.31;92.58
59831;BME280;45711;50.108;13.712;2022-08-16T00:41:40;97156.31;;;18.21;92.58
59831;BME280;45711;50.108;13.712;2022-08-16T00:44:07;97152.91;;;17.96;93.41
59831;BME280;45711;50.108;13.712;2022-08-16T00:46:38;97160.16;;;18.20;94.84
59831;BME280;45711;50.108;13.712;2022-08-16T00:49:08;97164.94;;;18.27;91.50
59831;BME280;45711;50.108;13.712;2022-08-16T00:51:34;97168.72;;;17.94;93.38
59831;BME280;45711;50.108;13.712;2022-08-16T00:54:02;97178.06;;;17.44;95.17
59831;BME280;45711;50.108;13.712;2022-08-16T00:56:32;97178.16;;;17.60;96.14
59831;BME280;45711;50.108;13.712;2022-08-16T00:58:59;97170.31;;;17.71;95.23
59831;BME280;45711;50.108;13.712;2022-08-16T01:01:25;97170.94;;;17.76;94.85
59831;BME280;45711;50.108;13.712;2022-08-16T01:03:52;97174.50;;;17.80;94.64
59831;BME280;45711;50.108;13.712;2022-08-16T01:06:20;97176.84;;;17.94;93.49
59831;BME280;45711;50.108;13.712;2022-08-16T01:08:49;97173.13;;;17.87;92.85
59831;BME280;45711;50.108;13.712;2022-08-16T01:11:17;97176.97;;;17.86;93.18
59831;BME280;45711;50.108;13.712;2022-08-16T01:13:43;97168.22;;;17.64;93.00
59831;BME280;45711;50.108;13.712;2022-08-16T01:16:13;97169.13;;;17.56;92.58
59831;BME280;45711;50.108;13.712;2022-08-16T01:18:43;97180.63;;;17.53;91.68
59831;BME280;45711;50.108;13.712;2022-08-16T01:21:22;97171.00;;;17.80;89.01
59831;BME280;45711;50.108;13.712;2022-08-16T01:26:38;97172.66;;;17.44;89.39
59831;BME280;45711;50.108;13.712;2022-08-16T01:29:07;97173.13;;;17.22;89.84
59831;BME280;45711;50.108;13.712;2022-08-16T01:31:34;97179.44;;;17.14;89.99
59831;BME280;45711;50.108;13.712;2022-08-16T01:34:00;97173.00;;;17.06;89.84
59831;BME280;45711;50.108;13.712;2022-08-16T01:36:26;97168.63;;;17.14;88.12
59831;BME280;45711;50.108;13.712;2022-08-16T01:38:54;97170.31;;;17.71;87.27
59831;BME280;45711;50.108;13.712;2022-08-16T01:41:23;97172.75;;;17.48;84.51
59831;BME280;45711;50.108;13.712;2022-08-16T01:43:50;97178.16;;;17.48;84.55
59831;BME280;45711;50.108;13.712;2022-08-16T01:46:19;97177.94;;;17.53;84.49
59831;BME280;45711;50.108;13.712;2022-08-16T01:48:46;97183.00;;;17.54;85.07
59831;BME280;45711;50.108;13.712;2022-08-16T01:51:13;97180.88;;;17.23;85.91
59831;BME280;45711;50.108;13.712;2022-08-16T01:53:41;97178.44;;;16.81;86.61
59831;BME280;45711;50.108;13.712;2022-08-16T01:56:07;97194.63;;;16.81;87.14
59831;BME280;45711;50.108;13.712;2022-08-16T01:58:34;97175.16;;;17.00;85.54
59831;BME280;45711;50.108;13.712;2022-08-16T02:01:00;97183.03;;;17.05;85.88
59831;BME280;45711;50.108;13.712;2022-08-16T02:03:26;97186.75;;;17.25;84.13
59831;BME280;45711;50.108;13.712;2022-08-16T02:05:51;97177.41;;;17.23;83.79
59831;BME280;45711;50.108;13.712;2022-08-16T02:08:17;97184.59;;;17.31;83.57
59831;BME280;45711;50.108;13.712;2022-08-16T02:10:43;97181.13;;;17.06;84.35
59831;BME280;45711;50.108;13.712;2022-08-16T02:13:08;97178.66;;;16.76;86.61
59831;BME280;45711;50.108;13.712;2022-08-16T02:15:36;97171.50;;;16.59;86.47
59831;BME280;45711;50.108;13.712;2022-08-16T02:18:03;97176.75;;;16.89;85.75
59831;BME280;45711;50.108;13.712;2022-08-16T02:20:31;97171.16;;;16.61;85.62
59831;BME280;45711;50.108;13.712;2022-08-16T02:22:58;97171.31;;;16.31;87.54
59831;BME280;45711;50.108;13.712;2022-08-16T02:25:24;97174.59;;;16.37;86.59
59831;BME280;45711;50.108;13.712;2022-08-16T02:27:52;97165.59;;;16.33;86.44
59831;BME280;45711;50.108;13.712;2022-08-16T02:30:21;97169.81;;;16.22;88.03
59831;BME280;45711;50.108;13.712;2022-08-16T02:32:48;97176.22;;;16.17;87.80
59831;BME280;45711;50.108;13.712;2022-08-16T02:35:44;97183.47;;;16.25;87.71
59831;BME280;45711;50.108;13.712;2022-08-16T02:38:10;97184.31;;;16.63;85.96
59831;BME280;45711;50.108;13.712;2022-08-16T02:40:38;97188.47;;;16.48;87.61
59831;BME280;45711;50.108;13.712;2022-08-16T02:43:03;97191.63;;;16.17;86.73
59831;BME280;45711;50.108;13.712;2022-08-16T02:45:31;97189.66;;;16.05;86.74
59831;BME280;45711;50.108;13.712;2022-08-16T02:47:58;97189.53;;;16.01;88.05
59831;BME280;45711;50.108;13.712;2022-08-16T02:50:25;97187.44;;;16.07;86.98
59831;BME280;45711;50.108;13.712;2022-08-16T02:52:53;97182.06;;;16.07;87.83
59831;BME280;45711;50.108;13.712;2022-08-16T02:55:19;97183.50;;;16.04;87.38
59831;BME280;45711;50.108;13.712;2022-08-16T02:57:45;97191.25;;;16.06;87.67
59831;BME280;45711;50.108;13.712;2022-08-16T03:00:12;97185.66;;;16.11;87.39
59831;BME280;45711;50.108;13.712;2022-08-16T03:02:38;97191.06;;;16.11;87.43
59831;BME280;45711;50.108;13.712;2022-08-16T03:05:07;97193.63;;;16.07;88.54
59831;BME280;45711;50.108;13.712;2022-08-16T03:07:34;97201.38;;;16.09;87.47
59831;BME280;45711;50.108;13.712;2022-08-16T03:09:59;97197.38;;;16.15;88.28
59831;BME280;45711;50.108;13.712;2022-08-16T03:12:25;97196.88;;;16.92;84.19
59831;BME280;45711;50.108;13.712;2022-08-16T03:14:51;97201.84;;;17.14;86.14
59831;BME280;45711;50.108;13.712;2022-08-16T03:17:17;97204.75;;;16.84;83.39
59831;BME280;45711;50.108;13.712;2022-08-16T03:19:42;97207.03;;;16.49;85.53
59831;BME280;45711;50.108;13.712;2022-08-16T03:22:09;97205.94;;;16.63;84.97
59831;BME280;45711;50.108;13.712;2022-08-16T03:24:35;97217.69;;;16.33;85.98
59831;BME280;45711;50.108;13.712;2022-08-16T03:27:02;97215.94;;;16.17;86.46
59831;BME280;45711;50.108;13.712;2022-08-16T03:29:30;97211.44;;;16.21;85.40
59831;BME280;45711;50.108;13.712;2022-08-16T03:31:56;97212.09;;;16.18;85.39
59831;BME280;45711;50.108;13.712;2022-08-16T03:34:24;97214.81;;;16.51;84.65
59831;BME280;45711;50.108;13.712;2022-08-16T03:36:50;97208.47;;;16.14;87.03
59831;BME280;45711;50.108;13.712;2022-08-16T03:39:17;97198.47;;;15.81;87.10
59831;BME280;45711;50.108;13.712;2022-08-16T03:41:42;97199.56;;;15.80;87.73
59831;BME280;45711;50.108;13.712;2022-08-16T03:44:08;97208.69;;;15.88;86.51
59831;BME280;45711;50.108;13.712;2022-08-16T03:46:34;97218.72;;;16.08;85.94
59831;BME280;45711;50.108;13.712;2022-08-16T03:49:00;97218.81;;;16.45;84.55
59831;BME280;45711;50.108;13.712;2022-08-16T03:51:26;97215.94;;;16.62;83.48
59831;BME280;45711;50.108;13.712;2022-08-16T03:53:52;97226.22;;;16.36;85.43
59831;BME280;45711;50.108;13.712;2022-08-16T03:56:21;97220.22;;;16.51;82.65
59831;BME280;45711;50.108;13.712;2022-08-16T03:58:47;97211.13;;;16.01;85.04
59831;BME280;45711;50.108;13.712;2022-08-16T04:01:13;97224.16;;;15.78;86.87
59831;BME280;45711;50.108;13.712;2022-08-16T04:03:39;97223.31;;;16.07;84.95
59831;BME280;45711;50.108;13.712;2022-08-16T04:06:05;97213.09;;;15.92;85.67
59831;BME280;45711;50.108;13.712;2022-08-16T04:08:31;97221.94;;;15.80;86.13
59831;BME280;45711;50.108;13.712;2022-08-16T04:10:57;97237.56;;;15.66;86.54
59831;BME280;45711;50.108;13.712;2022-08-16T04:13:25;97231.56;;;15.90;85.29
59831;BME280;45711;50.108;13.712;2022-08-16T04:15:51;97237.25;;;15.89;84.36
59831;BME280;45711;50.108;13.712;2022-08-16T04:18:17;97239.94;;;16.30;83.06
59831;BME280;45711;50.108;13.712;2022-08-16T04:20:43;97249.59;;;16.31;83.23
59831;BME280;45711;50.108;13.712;2022-08-16T04:23:09;97243.66;;;16.05;84.16
59831;BME280;45711;50.108;13.712;2022-08-16T04:25:35;97243.13;;;16.32;81.72
59831;BME280;45711;50.108;13.712;2022-08-16T04:28:01;97246.03;;;16.06;83.39
59831;BME280;45711;50.108;13.712;2022-08-16T04:30:30;97246.47;;;15.88;83.76
59831;BME280;45711;50.108;13.712;2022-08-16T04:32:56;97246.53;;;16.00;83.57
59831;BME280;45711;50.108;13.712;2022-08-16T04:35:22;97252.38;;;16.02;83.78
59831;BME280;45711;50.108;13.712;2022-08-16T04:37:49;97254.19;;;15.98;84.25
59831;BME280;45711;50.108;13.712;2022-08-16T04:40:15;97263.44;;;16.30;82.96
59831;BME280;45711;50.108;13.712;2022-08-16T04:42:41;97262.31;;;16.31;83.52
59831;BME280;45711;50.108;13.712;2022-08-16T04:45:09;97265.56;;;16.03;84.85
59831;BME280;45711;50.108;13.712;2022-08-16T04:47:48;97263.44;;;15.88;85.71
59831;BME280;45711;50.108;13.712;2022-08-16T04:50:18;97271.63;;;16.21;83.69
59831;BME280;45711;50.108;13.712;2022-08-16T04:52:46;97279.56;;;15.97;85.45
59831;BME280;45711;50.108;13.712;2022-08-16T04:55:14;97279.00;;;15.91;85.71
59831;BME280;45711;50.108;13.712;2022-08-16T04:57:40;97278.53;;;16.10;85.13
59831;BME280;45711;50.108;13.712;2022-08-16T05:00:09;97279.72;;;16.42;82.46
59831;BME280;45711;50.108;13.712;2022-08-16T05:02:36;97279.63;;;16.51;82.95
59831;BME280;45711;50.108;13.712;2022-08-16T05:05:04;97270.97;;;16.57;81.25
59831;BME280;45711;50.108;13.712;2022-08-16T05:07:30;97272.88;;;16.78;81.12
59831;BME280;45711;50.108;13.712;2022-08-16T05:09:56;97273.03;;;17.06;79.94
59831;BME280;45711;50.108;13.712;2022-08-16T05:12:21;97280.50;;;16.76;83.18
59831;BME280;45711;50.108;13.712;2022-08-16T05:14:47;97271.19;;;16.52;84.43
59831;BME280;45711;50.108;13.712;2022-08-16T05:17:14;97278.34;;;16.69;83.74
59831;BME280;45711;50.108;13.712;2022-08-16T05:19:40;97275.25;;;16.58;84.74
59831;BME280;45711;50.108;13.712;2022-08-16T05:22:07;97285.97;;;16.67;85.40
59831;BME280;45711;50.108;13.712;2022-08-16T05:24:33;97291.94;;;16.94;82.84
59831;BME280;45711;50.108;13.712;2022-08-16T05:26:59;97292.41;;;17.08;83.42
59831;BME280;45711;50.108;13.712;2022-08-16T05:29:24;97293.78;;;17.26;81.54
59831;BME280;45711;50.108;13.712;2022-08-16T05:31:50;97295.13;;;17.45;81.62
59831;BME280;45711;50.108;13.712;2022-08-16T05:34:16;97293.22;;;17.45;81.39
59831;BME280;45711;50.108;13.712;2022-08-16T05:36:47;97300.44;;;17.53;81.23
59831;BME280;45711;50.108;13.712;2022-08-16T05:39:18;97298.75;;;17.61;77.57
59831;BME280;45711;50.108;13.712;2022-08-16T05:41:44;97302.59;;;17.72;79.55
59831;BME280;45711;50.108;13.712;2022-08-16T05:44:13;97310.72;;;17.84;77.89
59831;BME280;45711;50.108;13.712;2022-08-16T05:46:39;97306.53;;;17.99;78.26
59831;BME280;45711;50.108;13.712;2022-08-16T05:49:07;97312.13;;;18.06;77.34
59831;BME280;45711;50.108;13.712;2022-08-16T05:51:33;97302.19;;;18.11;77.12
59831;BME280;45711;50.108;13.712;2022-08-16T05:53:58;97304.00;;;18.19;75.92
59831;BME280;45711;50.108;13.712;2022-08-16T05:56:26;97299.00;;;18.33;76.58
59831;BME280;45711;50.108;13.712;2022-08-16T05:58:51;97301.59;;;18.57;76.09
59831;BME280;45711;50.108;13.712;2022-08-16T06:01:20;97318.19;;;18.68;74.62
59831;BME280;45711;50.108;13.712;2022-08-16T06:03:45;97316.44;;;18.76;75.46
59831;BME280;45711;50.108;13.712;2022-08-16T06:06:11;97307.84;;;18.86;75.98
59831;BME280;45711;50.108;13.712;2022-08-16T06:08:38;97318.25;;;19.00;74.36
59831;BME280;45711;50.108;13.712;2022-08-16T06:11:14;97317.78;;;19.73;70.39
59831;BME280;45711;50.108;13.712;2022-08-16T06:13:41;97319.94;;;19.83;68.94
59831;BME280;45711;50.108;13.712;2022-08-16T06:16:08;97320.44;;;19.89;67.97
59831;BME280;45711;50.108;13.712;2022-08-16T06:18:36;97323.19;;;20.24;68.68
59831;BME280;45711;50.108;13.712;2022-08-16T06:21:02;97326.09;;;20.51;66.80
59831;BME280;45711;50.108;13.712;2022-08-16T06:26:05;97325.06;;;20.04;66.16
59831;BME280;45711;50.108;13.712;2022-08-16T06:28:40;97336.91;;;19.96;68.29
59831;BME280;45711;50.108;13.712;2022-08-16T06:31:08;97326.97;;;20.39;67.51
59831;BME280;45711;50.108;13.712;2022-08-16T06:33:38;97318.91;;;20.43;66.31
59831;BME280;45711;50.108;13.712;2022-08-16T06:36:12;97329.84;;;20.85;65.33
59831;BME280;45711;50.108;13.712;2022-08-16T06:38:43;97332.94;;;21.03;64.10
59831;BME280;45711;50.108;13.712;2022-08-16T06:41:15;97333.75;;;21.07;66.56
59831;BME280;45711;50.108;13.712;2022-08-16T06:43:42;97338.22;;;21.38;66.59
59831;BME280;45711;50.108;13.712;2022-08-16T06:46:21;97347.53;;;20.95;64.67
59831;BME280;45711;50.108;13.712;2022-08-16T06:48:47;97345.22;;;20.97;64.15
59831;BME280;45711;50.108;13.712;2022-08-16T06:51:13;97352.13;;;21.79;63.05
59831;BME280;45711;50.108;13.712;2022-08-16T06:53:38;97355.47;;;24.01;55.24
59831;BME280;45711;50.108;13.712;2022-08-16T06:56:06;97352.16;;;25.27;52.60
59831;BME280;45711;50.108;13.712;2022-08-16T06:58:32;97351.34;;;25.19;50.46
59831;BME280;45711;50.108;13.712;2022-08-16T07:01:00;97361.56;;;25.40;52.65
59831;BME280;45711;50.108;13.712;2022-08-16T07:03:26;97351.41;;;25.87;51.12
59831;BME280;45711;50.108;13.712;2022-08-16T07:05:52;97347.47;;;25.67;50.13
59831;BME280;45711;50.108;13.712;2022-08-16T07:08:18;97354.13;;;26.12;48.78
59831;BME280;45711;50.108;13.712;2022-08-16T07:10:44;97354.88;;;26.23;49.41
59831;BME280;45711;50.108;13.712;2022-08-16T07:13:10;97344.19;;;26.68;47.99
59831;BME280;45711;50.108;13.712;2022-08-16T07:16:08;97349.97;;;26.92;48.22
59831;BME280;45711;50.108;13.712;2022-08-16T07:18:39;97351.50;;;27.00;47.96
59831;BME280;45711;50.108;13.712;2022-08-16T07:21:05;97347.53;;;27.12;47.71
59831;BME280;45711;50.108;13.712;2022-08-16T07:23:42;97353.94;;;27.53;45.76
59831;BME280;45711;50.108;13.712;2022-08-16T07:26:23;97344.41;;;27.13;47.46
59831;BME280;45711;50.108;13.712;2022-08-16T07:28:50;97350.09;;;27.40;46.30
59831;BME280;45711;50.108;13.712;2022-08-16T07:31:18;97350.19;;;28.23;45.24
59831;BME280;45711;50.108;13.712;2022-08-16T07:33:44;97357.78;;;28.53;42.85
59831;BME280;45711;50.108;13.712;2022-08-16T07:36:11;97369.19;;;29.16;42.92
59831;BME280;45711;50.108;13.712;2022-08-16T07:38:37;97374.09;;;28.67;43.32
59831;BME280;45711;50.108;13.712;2022-08-16T07:41:03;97363.94;;;28.26;42.68
59831;BME280;45711;50.108;13.712;2022-08-16T07:43:29;97364.28;;;28.66;43.55
59831;BME280;45711;50.108;13.712;2022-08-16T07:45:56;97359.22;;;28.65;43.31
59831;BME280;45711;50.108;13.712;2022-08-16T07:48:23;97365.22;;;28.87;43.09
59831;BME280;45711;50.108;13.712;2022-08-16T07:50:48;97364.56;;;28.75;43.33
59831;BME280;45711;50.108;13.712;2022-08-16T07:53:14;97372.25;;;28.61;43.31
59831;BME280;45711;50.108;13.712;2022-08-16T07:55:40;97376.41;;;29.07;42.90
59831;BME280;45711;50.108;13.712;2022-08-16T07:58:06;97371.06;;;30.00;41.10
59831;BME280;45711;50.108;13.712;2022-08-16T08:00:32;97361.09;;;29.33;41.95
59831;BME280;45711;50.108;13.712;2022-08-16T08:02:58;97374.50;;;30.32;40.09
59831;BME280;45711;50.108;13.712;2022-08-16T08:05:27;97361.00;;;30.57;38.44
59831;BME280;45711;50.108;13.712;2022-08-16T08:07:53;97358.03;;;29.77;37.77
59831;BME280;45711;50.108;13.712;2022-08-16T08:10:20;97369.41;;;30.70;38.38
59831;BME280;45711;50.108;13.712;2022-08-16T08:12:47;97369.03;;;29.54;38.82
59831;BME280;45711;50.108;13.712;2022-08-16T08:15:15;97365.94;;;30.46;39.44
59831;BME280;45711;50.108;13.712;2022-08-16T08:17:41;97364.66;;;30.50;38.66
59831;BME280;45711;50.108;13.712;2022-08-16T08:20:10;97375.97;;;29.89;40.43
59831;BME280;45711;50.108;13.712;2022-08-16T08:22:39;97367.03;;;29.82;40.68
59831;BME280;45711;50.108;13.712;2022-08-16T08:25:06;97376.72;;;30.80;37.94
59831;BME280;45711;50.108;13.712;2022-08-16T08:27:32;97379.34;;;30.87;38.91
59831;BME280;45711;50.108;13.712;2022-08-16T08:29:58;97381.53;;;30.76;37.65
59831;BME280;45711;50.108;13.712;2022-08-16T08:32:24;97384.03;;;31.26;37.69
59831;BME280;45711;50.108;13.712;2022-08-16T08:34:54;97394.25;;;30.03;40.32
59831;BME280;45711;50.108;13.712;2022-08-16T08:37:20;97386.47;;;29.98;37.38
59831;BME280;45711;50.108;13.712;2022-08-16T08:39:48;97395.19;;;31.03;36.39
59831;BME280;45711;50.108;13.712;2022-08-16T08:42:14;97387.03;;;31.52;35.52
59831;BME280;45711;50.108;13.712;2022-08-16T08:44:40;97391.34;;;30.14;35.46
59831;BME280;45711;50.108;13.712;2022-08-16T08:47:06;97391.38;;;30.34;39.42
59831;BME280;45711;50.108;13.712;2022-08-16T08:49:32;97382.44;;;29.25;35.75
59831;BME280;45711;50.108;13.712;2022-08-16T08:52:20;97387.38;;;29.10;41.59
59831;BME280;45711;50.108;13.712;2022-08-16T08:55:21;97382.47;;;28.19;43.58
59831;BME280;45711;50.108;13.712;2022-08-16T08:58:06;97395.84;;;28.58;42.66
59831;BME280;45711;50.108;13.712;2022-08-16T09:00:33;97386.94;;;29.12;40.27
59831;BME280;45711;50.108;13.712;2022-08-16T09:03:05;97380.09;;;27.76;41.79
59831;BME280;45711;50.108;13.712;2022-08-16T09:05:48;97385.81;;;27.40;43.64
59831;BME280;45711;50.108;13.712;2022-08-16T09:08:15;97376.47;;;27.86;39.91
59831;BME280;45711;50.108;13.712;2022-08-16T09:17:34;97379.00;;;28.11;42.98
59831;BME280;45711;50.108;13.712;2022-08-16T09:20:34;97380.31;;;27.96;41.40
59831;BME280;45711;50.108;13.712;2022-08-16T09:23:20;97380.75;;;28.36;41.89
59831;BME280;45711;50.108;13.712;2022-08-16T09:25:53;97366.81;;;27.60;44.33
59831;BME280;45711;50.108;13.712;2022-08-16T09:28:18;97371.75;;;27.87;43.59
59831;BME280;45711;50.108;13.712;2022-08-16T09:30:44;97371.19;;;26.80;47.03
59831;BME280;45711;50.108;13.712;2022-08-16T09:33:13;97378.81;;;27.28;40.88
59831;BME280;45711;50.108;13.712;2022-08-16T09:35:44;97381.50;;;27.43;42.96
59831;BME280;45711;50.108;13.712;2022-08-16T09:38:19;97372.94;;;27.30;40.72
59831;BME280;45711;50.108;13.712;2022-08-16T09:40:45;97372.91;;;27.89;38.95
59831;BME280;45711;50.108;13.712;2022-08-16T09:43:14;97372.94;;;27.86;37.77
59831;BME280;45711;50.108;13.712;2022-08-16T09:45:40;97357.97;;;27.90;37.69
59831;BME280;45711;50.108;13.712;2022-08-16T09:48:08;97365.75;;;27.99;41.92
59831;BME280;45711;50.108;13.712;2022-08-16T09:50:37;97360.38;;;27.85;39.56
59831;BME280;45711;50.108;13.712;2022-08-16T09:53:07;97357.53;;;26.66;45.71
59831;BME280;45711;50.108;13.712;2022-08-16T09:55:33;97353.03;;;27.04;45.59
59831;BME280;45711;50.108;13.712;2022-08-16T09:57:59;97362.59;;;27.52;43.95
59831;BME280;45711;50.108;13.712;2022-08-16T10:00:26;97361.41;;;28.43;38.63
59831;BME280;45711;50.108;13.712;2022-08-16T10:02:52;97362.78;;;27.16;45.49
59831;BME280;45711;50.108;13.712;2022-08-16T10:05:18;97372.84;;;27.44;44.58
59831;BME280;45711;50.108;13.712;2022-08-16T10:07:49;97370.00;;;26.81;46.63
59831;BME280;45711;50.108;13.712;2022-08-16T10:10:19;97360.63;;;26.72;45.27
59831;BME280;45711;50.108;13.712;2022-08-16T10:12:45;97365.41;;;26.53;47.80
59831;BME280;45711;50.108;13.712;2022-08-16T10:15:34;97366.06;;;26.86;40.65
59831;BME280;45711;50.108;13.712;2022-08-16T10:18:01;97375.00;;;27.08;45.62
59831;BME280;45711;50.108;13.712;2022-08-16T10:20:33;97371.63;;;27.49;40.79
59831;BME280;45711;50.108;13.712;2022-08-16T10:23:03;97372.56;;;27.84;43.84
59831;BME280;45711;50.108;13.712;2022-08-16T10:25:42;97366.09;;;27.56;43.06
59831;BME280;45711;50.108;13.712;2022-08-16T10:28:08;97365.09;;;28.63;37.89
59831;BME280;45711;50.108;13.712;2022-08-16T10:30:57;97366.75;;;28.16;42.45
59831;BME280;45711;50.108;13.712;2022-08-16T10:33:23;97369.84;;;27.80;40.69
59831;BME280;45711;50.108;13.712;2022-08-16T10:35:52;97358.41;;;28.26;34.82
59831;BME280;45711;50.108;13.712;2022-08-16T10:38:19;97365.75;;;28.78;37.94
59831;BME280;45711;50.108;13.712;2022-08-16T10:40:45;97371.59;;;26.79;45.81
59831;BME280;45711;50.108;13.712;2022-08-16T10:43:13;97363.94;;;27.26;45.38
59831;BME280;45711;50.108;13.712;2022-08-16T10:45:47;97358.13;;;27.13;45.04
59831;BME280;45711;50.108;13.712;2022-08-16T10:48:16;97362.25;;;26.55;46.98
59831;BME280;45711;50.108;13.712;2022-08-16T10:50:42;97347.88;;;26.08;47.78
59831;BME280;45711;50.108;13.712;2022-08-16T10:53:08;97346.50;;;27.47;42.49
59831;BME280;45711;50.108;13.712;2022-08-16T10:55:41;97348.22;;;27.26;38.26
59831;BME280;45711;50.108;13.712;2022-08-16T10:58:09;97346.03;;;28.08;35.63
59831;BME280;45711;50.108;13.712;2022-08-16T11:00:36;97339.44;;;27.46;43.08
59831;BME280;45711;50.108;13.712;2022-08-16T11:03:04;97344.03;;;28.49;36.03
59831;BME280;45711;50.108;13.712;2022-08-16T11:05:31;97337.94;;;27.38;44.34
59831;BME280;45711;50.108;13.712;2022-08-16T11:07:57;97339.63;;;27.21;38.99
59831;BME280;45711;50.108;13.712;2022-08-16T11:10:24;97337.03;;;28.03;39.41
59831;BME280;45711;50.108;13.712;2022-08-16T11:12:52;97339.13;;;28.30;40.37
59831;BME280;45711;50.108;13.712;2022-08-16T11:15:18;97334.38;;;27.93;42.10
59831;BME280;45711;50.108;13.712;2022-08-16T11:17:48;97330.88;;;27.92;41.93
59831;BME280;45711;50.108;13.712;2022-08-16T11:20:15;97327.41;;;27.81;37.34
59831;BME280;45711;50.108;13.712;2022-08-16T11:22:42;97323.66;;;26.98;45.58
59831;BME280;45711;50.108;13.712;2022-08-16T11:25:08;97328.59;;;27.28;42.89
59831;BME280;45711;50.108;13.712;2022-08-16T11:27:34;97316.72;;;26.75;46.84
59831;BME280;45711;50.108;13.712;2022-08-16T11:30:01;97319.56;;;26.50;44.34
59831;BME280;45711;50.108;13.712;2022-08-16T11:32:28;97319.94;;;26.56;42.45
59831;BME280;45711;50.108;13.712;2022-08-16T11:34:57;97314.47;;;26.56;44.72
59831;BME280;45711;50.108;13.712;2022-08-16T11:37:23;97312.22;;;27.06;45.82
59831;BME280;45711;50.108;13.712;2022-08-16T11:39:49;97308.69;;;27.06;46.27
59831;BME280;45711;50.108;13.712;2022-08-16T11:42:14;97301.44;;;26.74;40.12
59831;BME280;45711;50.108;13.712;2022-08-16T11:44:40;97306.03;;;26.95;45.89
59831;BME280;45711;50.108;13.712;2022-08-16T11:47:07;97306.16;;;27.85;36.96
59831;BME280;45711;50.108;13.712;2022-08-16T11:49:33;97317.94;;;27.34;44.51
59831;BME280;45711;50.108;13.712;2022-08-16T11:51:59;97307.34;;;26.69;42.98
59831;BME280;45711;50.108;13.712;2022-08-16T11:54:26;97306.63;;;27.28;38.98
59831;BME280;45711;50.108;13.712;2022-08-16T11:56:51;97303.41;;;28.26;36.29
59831;BME280;45711;50.108;13.712;2022-08-16T11:59:17;97308.53;;;28.24;35.29
59831;BME280;45711;50.108;13.712;2022-08-16T12:01:43;97309.09;;;28.46;41.08
59831;BME280;45711;50.108;13.712;2022-08-16T12:04:10;97298.97;;;28.40;36.45
59831;BME280;45711;50.108;13.712;2022-08-16T12:06:36;97306.22;;;28.19;34.06
59831;BME280;45711;50.108;13.712;2022-08-16T12:09:04;97306.41;;;28.01;34.55
59831;BME280;45711;50.108;13.712;2022-08-16T12:11:30;97305.38;;;27.88;38.95
59831;BME280;45711;50.108;13.712;2022-08-16T12:13:57;97307.63;;;27.97;35.64
59831;BME280;45711;50.108;13.712;2022-08-16T12:16:24;97300.66;;;27.85;35.79
59831;BME280;45711;50.108;13.712;2022-08-16T12:18:50;97308.78;;;27.51;40.64
59831;BME280;45711;50.108;13.712;2022-08-16T12:21:17;97305.41;;;27.33;40.58
59831;BME280;45711;50.108;13.712;2022-08-16T12:23:43;97301.31;;;26.99;46.12
59831;BME280;45711;50.108;13.712;2022-08-16T12:26:08;97294.56;;;27.63;43.68
59831;BME280;45711;50.108;13.712;2022-08-16T12:28:34;97303.25;;;26.99;43.98
59831;BME280;45711;50.108;13.712;2022-08-16T12:31:00;97296.59;;;26.96;45.70
59831;BME280;45711;50.108;13.712;2022-08-16T12:33:27;97291.66;;;26.70;47.00
59831;BME280;45711;50.108;13.712;2022-08-16T12:35:53;97298.25;;;27.46;40.83
59831;BME280;45711;50.108;13.712;2022-08-16T12:38:20;97294.72;;;27.90;43.66
59831;BME280;45711;50.108;13.712;2022-08-16T12:40:47;97287.94;;;28.02;36.11
59831;BME280;45711;50.108;13.712;2022-08-16T12:43:16;97293.22;;;27.34;45.90
59831;BME280;45711;50.108;13.712;2022-08-16T12:45:44;97293.09;;;26.96;46.85
59831;BME280;45711;50.108;13.712;2022-08-16T12:48:11;97286.88;;;26.81;47.05
59831;BME280;45711;50.108;13.712;2022-08-16T12:50:58;97291.44;;;27.05;46.23
59831;BME280;45711;50.108;13.712;2022-08-16T12:53:26;97285.84;;;27.23;42.84
59831;BME280;45711;50.108;13.712;2022-08-16T12:55:54;97282.78;;;27.18;39.49
59831;BME280;45711;50.108;13.712;2022-08-16T12:58:20;97283.91;;;27.69;37.78
59831;BME280;45711;50.108;13.712;2022-08-16T13:00:46;97287.41;;;28.14;35.89
59831;BME280;45711;50.108;13.712;2022-08-16T13:03:14;97282.75;;;27.21;46.47
59831;BME280;45711;50.108;13.712;2022-08-16T13:05:46;97279.31;;;27.55;44.87
59831;BME280;45711;50.108;13.712;2022-08-16T13:08:15;97281.75;;;27.46;45.11